sensor_id;sensor_type;location;lat;lon;timestamp;pressure;altitude;pressure_sealevel;temperature;humidity
65534;BME280;53640;55.838;37.184;2022-09-09T00:01:40;99928.50;;;5.94;54.15
65534;BME280;53640;55.838;37.184;2022-09-09T00:04:40;99883.66;;;5.55;54.41
65534;BME280;53640;55.838;37.184;2022-09-09T00:07:21;99930.41;;;5.77;54.63
65534;BME280;53640;55.838;37.184;2022-09-09T00:15:18;99933.97;;;5.69;55.60
65534;BME280;53640;55.838;37.184;2022-09-09T00:17:53;99902.00;;;5.35;55.17
65534;BME280;53640;55.838;37.184;2022-09-09T00:20:47;99945.72;;;5.60;55.20
65534;BME280;53640;55.838;37.184;2022-09-09T00:23:35;99920.94;;;5.42;55.58
65534;BME280;53640;55.838;37.184;2022-09-09T00:26:14;99954.78;;;5.59;55.46
65534;BME280;53640;55.838;37.184;2022-09-09T00:28:50;99913.56;;;5.36;55.97
65534;BME280;53640;55.838;37.184;2022-09-09T00:31:23;99866.09;;;5.12;56.10
65534;BME280;53640;55.838;37.184;2022-09-09T00:33:51;99951.78;;;5.62;55.78
65534;BME280;53640;55.838;37.184;2022-09-09T00:36:21;99939.38;;;5.53;55.50
65534;BME280;53640;55.838;37.184;2022-09-09T00:38:57;99935.50;;;5.56;55.76
65534;BME280;53640;55.838;37.184;2022-09-09T00:44:02;99952.47;;;5.64;55.70
65534;BME280;53640;55.838;37.184;2022-09-09T00:57:29;99953.97;;;5.59;55.31
65534;BME280;53640;55.838;37.184;2022-09-09T01:00:21;99977.44;;;5.73;55.07
65534;BME280;53640;55.838;37.184;2022-09-09T01:10:51;99928.34;;;5.32;55.25
65534;BME280;53640;55.838;37.184;2022-09-09T01:13:28;99943.94;;;5.36;55.43
65534;BME280;53640;55.838;37.184;2022-09-09T01:16:04;99942.78;;;5.31;55.54
65534;BME280;53640;55.838;37.184;2022-09-09T01:18:39;99982.84;;;5.49;55.75
65534;BME280;53640;55.838;37.184;2022-09-09T01:26:34;99949.09;;;5.21;55.76
65534;BME280;53640;55.838;37.184;2022-09-09T01:29:11;99986.88;;;5.44;55.71
65534;BME280;53640;55.838;37.184;2022-09-09T01:31:57;99989.56;;;5.44;56.08
65534;BME280;53640;55.838;37.184;2022-09-09T01:34:38;99954.31;;;5.23;55.52
65534;BME280;53640;55.838;37.184;2022-09-09T01:37:11;99948.78;;;5.16;55.75
65534;BME280;53640;55.838;37.184;2022-09-09T01:39:42;99996.63;;;5.45;55.82
65534;BME280;53640;55.838;37.184;2022-09-09T01:42:13;100001.31;;;5.43;55.67
65534;BME280;53640;55.838;37.184;2022-09-09T01:44:41;99947.78;;;5.09;55.83
65534;BME280;53640;55.838;37.184;2022-09-09T01:47:08;100002.16;;;5.44;56.09
65534;BME280;53640;55.838;37.184;2022-09-09T01:49:46;100005.50;;;5.38;55.82
65534;BME280;53640;55.838;37.184;2022-09-09T01:52:20;99972.09;;;5.24;55.64
65534;BME280;53640;55.838;37.184;2022-09-09T01:54:47;99978.97;;;5.27;55.59
65534;BME280;53640;55.838;37.184;2022-09-09T01:57:27;100004.31;;;5.40;55.63
65534;BME280;53640;55.838;37.184;2022-09-09T02:00:10;99980.28;;;5.22;55.69
65534;BME280;53640;55.838;37.184;2022-09-09T02:03:05;100017.25;;;5.45;55.65
65534;BME280;53640;55.838;37.184;2022-09-09T02:08:56;100016.59;;;5.35;55.51
65534;BME280;53640;55.838;37.184;2022-09-09T02:11:26;100013.19;;;5.25;55.66
65534;BME280;53640;55.838;37.184;2022-09-09T02:14:03;100016.75;;;5.33;56.00
65534;BME280;53640;55.838;37.184;2022-09-09T02:22:13;100009.50;;;5.17;55.59
65534;BME280;53640;55.838;37.184;2022-09-09T02:24:40;99995.25;;;5.09;55.49
65534;BME280;53640;55.838;37.184;2022-09-09T02:27:18;100030.31;;;5.24;55.96
65534;BME280;53640;55.838;37.184;2022-09-09T02:29:45;100030.16;;;5.25;55.59
65534;BME280;53640;55.838;37.184;2022-09-09T02:32:22;100029.81;;;5.20;56.02
65534;BME280;53640;55.838;37.184;2022-09-09T02:34:55;100033.31;;;5.20;55.54
65534;BME280;53640;55.838;37.184;2022-09-09T02:37:26;100030.63;;;5.12;55.83
65534;BME280;53640;55.838;37.184;2022-09-09T02:39:55;100037.50;;;5.15;55.54
65534;BME280;53640;55.838;37.184;2022-09-09T02:42:22;100038.69;;;5.12;56.05
65534;BME280;53640;55.838;37.184;2022-09-09T02:44:51;100036.00;;;5.04;55.73
65534;BME280;53640;55.838;37.184;2022-09-09T02:47:35;100012.31;;;4.83;55.76
65534;BME280;53640;55.838;37.184;2022-09-09T02:50:35;100019.19;;;4.86;56.00
65534;BME280;53640;55.838;37.184;2022-09-09T02:53:21;100046.03;;;4.94;55.83
65534;BME280;53640;55.838;37.184;2022-09-09T02:56:17;100037.44;;;4.82;56.24
65534;BME280;53640;55.838;37.184;2022-09-09T02:58:48;100047.66;;;4.79;56.07
65534;BME280;53640;55.838;37.184;2022-09-09T03:01:15;100019.28;;;4.60;56.29
65534;BME280;53640;55.838;37.184;2022-09-09T03:03:42;100052.00;;;4.71;56.46
65534;BME280;53640;55.838;37.184;2022-09-09T03:06:14;100041.91;;;4.65;56.47
65534;BME280;53640;55.838;37.184;2022-09-09T03:08:41;100024.78;;;4.50;56.59
65534;BME280;53640;55.838;37.184;2022-09-09T03:11:08;100055.63;;;4.62;56.36
65534;BME280;53640;55.838;37.184;2022-09-09T03:13:37;100060.34;;;4.60;56.53
65534;BME280;53640;55.838;37.184;2022-09-09T03:16:05;100050.56;;;4.51;56.89
65534;BME280;53640;55.838;37.184;2022-09-09T03:18:36;100042.50;;;4.43;56.60
65534;BME280;53640;55.838;37.184;2022-09-09T03:21:03;100050.41;;;4.44;56.81
65534;BME280;53640;55.838;37.184;2022-09-09T03:23:29;100050.81;;;4.32;56.81
65534;BME280;53640;55.838;37.184;2022-09-09T03:25:58;100036.38;;;4.24;56.62
65534;BME280;53640;55.838;37.184;2022-09-09T03:28:34;100072.38;;;4.48;57.13
65534;BME280;53640;55.838;37.184;2022-09-09T03:31:05;100062.59;;;4.39;57.21
65534;BME280;53640;55.838;37.184;2022-09-09T03:33:37;100049.84;;;4.33;56.79
65534;BME280;53640;55.838;37.184;2022-09-09T03:36:05;100029.97;;;4.17;56.92
65534;BME280;53640;55.838;37.184;2022-09-09T03:38:32;100072.28;;;4.40;57.13
65534;BME280;53640;55.838;37.184;2022-09-09T03:40:59;100081.88;;;4.42;57.42
65534;BME280;53640;55.838;37.184;2022-09-09T03:43:28;100070.78;;;4.37;57.51
65534;BME280;53640;55.838;37.184;2022-09-09T03:45:55;100082.34;;;4.38;57.11
65534;BME280;53640;55.838;37.184;2022-09-09T03:48:24;100074.94;;;4.32;57.22
65534;BME280;53640;55.838;37.184;2022-09-09T03:50:53;100037.97;;;4.09;57.87
65534;BME280;53640;55.838;37.184;2022-09-09T03:53:24;100070.06;;;4.27;57.67
65534;BME280;53640;55.838;37.184;2022-09-09T03:55:54;100074.28;;;4.30;57.87
65534;BME280;53640;55.838;37.184;2022-09-09T03:58:23;100058.63;;;4.17;57.59
65534;BME280;53640;55.838;37.184;2022-09-09T04:00:58;100053.78;;;4.20;57.50
65534;BME280;53640;55.838;37.184;2022-09-09T04:03:27;100046.41;;;4.14;57.55
65534;BME280;53640;55.838;37.184;2022-09-09T04:05:55;100074.44;;;4.36;57.78
65534;BME280;53640;55.838;37.184;2022-09-09T04:08:24;100078.66;;;4.39;57.68
65534;BME280;53640;55.838;37.184;2022-09-09T04:10:54;100084.56;;;4.42;57.55
65534;BME280;53640;55.838;37.184;2022-09-09T04:13:24;100061.19;;;4.27;57.71
65534;BME280;53640;55.838;37.184;2022-09-09T04:15:57;100094.47;;;4.50;57.88
65534;BME280;53640;55.838;37.184;2022-09-09T04:18:25;100058.53;;;4.35;57.95
65534;BME280;53640;55.838;37.184;2022-09-09T04:20:53;100093.84;;;4.56;57.85
65534;BME280;53640;55.838;37.184;2022-09-09T04:23:23;100080.56;;;4.55;57.94
65534;BME280;53640;55.838;37.184;2022-09-09T04:25:52;100067.31;;;4.45;58.03
65534;BME280;53640;55.838;37.184;2022-09-09T04:28:21;100103.63;;;4.73;58.01
65534;BME280;53640;55.838;37.184;2022-09-09T04:30:48;100065.31;;;4.55;57.79
65534;BME280;53640;55.838;37.184;2022-09-09T04:33:15;100067.69;;;4.58;57.64
65534;BME280;53640;55.838;37.184;2022-09-09T04:35:46;100097.63;;;4.80;57.93
65534;BME280;53640;55.838;37.184;2022-09-09T04:38:16;100112.38;;;4.84;57.79
65534;BME280;53640;55.838;37.184;2022-09-09T04:40:45;100095.44;;;4.83;58.07
65534;BME280;53640;55.838;37.184;2022-09-09T04:43:14;100106.72;;;4.95;58.08
65534;BME280;53640;55.838;37.184;2022-09-09T04:45:43;100099.16;;;4.90;58.06
65534;BME280;53640;55.838;37.184;2022-09-09T04:48:10;100082.03;;;4.83;57.63
65534;BME280;53640;55.838;37.184;2022-09-09T04:50:37;100077.34;;;4.85;57.40
65534;BME280;53640;55.838;37.184;2022-09-09T04:53:04;100072.66;;;4.87;57.60
65534;BME280;53640;55.838;37.184;2022-09-09T04:55:32;100110.13;;;5.13;57.63
65534;BME280;53640;55.838;37.184;2022-09-09T04:58:06;100066.66;;;4.93;57.23
65534;BME280;53640;55.838;37.184;2022-09-09T05:00:36;100118.94;;;5.32;56.99
65534;BME280;53640;55.838;37.184;2022-09-09T05:03:05;100118.25;;;5.38;56.93
65534;BME280;53640;55.838;37.184;2022-09-09T05:05:33;100083.28;;;5.13;56.85
65534;BME280;53640;55.838;37.184;2022-09-09T05:08:07;100095.78;;;5.31;56.52
65534;BME280;53640;55.838;37.184;2022-09-09T05:10:37;100088.38;;;5.33;56.29
65534;BME280;53640;55.838;37.184;2022-09-09T05:13:05;100134.06;;;5.65;56.18
65534;BME280;53640;55.838;37.184;2022-09-09T05:15:33;100040.88;;;5.17;56.11
65534;BME280;53640;55.838;37.184;2022-09-09T05:18:01;100132.41;;;5.81;55.81
65534;BME280;53640;55.838;37.184;2022-09-09T05:20:33;100038.03;;;5.27;55.33
65534;BME280;53640;55.838;37.184;2022-09-09T05:23:01;100093.59;;;5.75;55.10
65534;BME280;53640;55.838;37.184;2022-09-09T05:25:31;100126.34;;;6.03;54.68
65534;BME280;53640;55.838;37.184;2022-09-09T05:27:58;100136.22;;;6.19;54.24
65534;BME280;53640;55.838;37.184;2022-09-09T05:30:26;100131.53;;;6.29;53.59
65534;BME280;53640;55.838;37.184;2022-09-09T05:33:11;100120.06;;;6.35;54.12
65534;BME280;53640;55.838;37.184;2022-09-09T05:35:38;100119.84;;;6.53;52.82
65534;BME280;53640;55.838;37.184;2022-09-09T05:38:04;100113.13;;;6.57;52.67
65534;BME280;53640;55.838;37.184;2022-09-09T05:40:31;100083.88;;;6.54;52.54
65534;BME280;53640;55.838;37.184;2022-09-09T05:42:59;100143.91;;;7.02;51.94
65534;BME280;53640;55.838;37.184;2022-09-09T05:45:27;100137.66;;;7.10;51.43
65534;BME280;53640;55.838;37.184;2022-09-09T05:47:53;100109.25;;;7.07;51.78
65534;BME280;53640;55.838;37.184;2022-09-09T05:50:20;100124.66;;;7.45;51.41
65534;BME280;53640;55.838;37.184;2022-09-09T05:52:47;100138.25;;;7.74;50.66
65534;BME280;53640;55.838;37.184;2022-09-09T05:55:15;100106.47;;;7.70;49.54
65534;BME280;53640;55.838;37.184;2022-09-09T05:57:42;100134.25;;;8.08;49.24
65534;BME280;53640;55.838;37.184;2022-09-09T06:00:09;100140.19;;;8.26;48.17
65534;BME280;53640;55.838;37.184;2022-09-09T06:02:40;100110.34;;;8.28;46.95
65534;BME280;53640;55.838;37.184;2022-09-09T06:05:09;100142.00;;;8.64;46.74
65534;BME280;53640;55.838;37.184;2022-09-09T06:07:37;100106.63;;;8.58;46.06
65534;BME280;53640;55.838;37.184;2022-09-09T06:10:04;100115.19;;;8.77;45.63
65534;BME280;53640;55.838;37.184;2022-09-09T06:12:31;100101.84;;;8.90;45.66
65534;BME280;53640;55.838;37.184;2022-09-09T06:14:59;100132.16;;;9.22;45.28
65534;BME280;53640;55.838;37.184;2022-09-09T06:17:25;100163.50;;;9.52;44.88
65534;BME280;53640;55.838;37.184;2022-09-09T06:19:52;100170.28;;;9.63;43.92
65534;BME280;53640;55.838;37.184;2022-09-09T06:22:20;100145.88;;;9.56;44.33
65534;BME280;53640;55.838;37.184;2022-09-09T06:24:46;100120.66;;;9.49;43.29
65534;BME280;53640;55.838;37.184;2022-09-09T06:27:14;100129.28;;;9.60;42.60
65534;BME280;53640;55.838;37.184;2022-09-09T06:29:41;100156.97;;;9.83;42.91
65534;BME280;53640;55.838;37.184;2022-09-09T06:32:09;100161.84;;;9.94;42.50
65534;BME280;53640;55.838;37.184;2022-09-09T06:34:35;100163.66;;;10.09;42.53
65534;BME280;53640;55.838;37.184;2022-09-09T06:37:03;100173.00;;;10.34;41.85
65534;BME280;53640;55.838;37.184;2022-09-09T06:39:40;100170.91;;;10.58;41.36
65534;BME280;53640;55.838;37.184;2022-09-09T06:42:07;100132.72;;;10.52;40.69
65534;BME280;53640;55.838;37.184;2022-09-09T06:44:52;100166.34;;;10.93;40.18
65534;BME280;53640;55.838;37.184;2022-09-09T06:47:32;100153.63;;;10.93;39.31
65534;BME280;53640;55.838;37.184;2022-09-09T06:49:59;100157.56;;;10.91;38.77
65534;BME280;53640;55.838;37.184;2022-09-09T06:52:26;100142.75;;;10.87;39.36
65534;BME280;53640;55.838;37.184;2022-09-09T06:54:54;100154.28;;;10.95;38.82
65534;BME280;53640;55.838;37.184;2022-09-09T06:57:21;100145.72;;;10.64;39.00
65534;BME280;53640;55.838;37.184;2022-09-09T06:59:48;100087.66;;;10.38;39.69
65534;BME280;53640;55.838;37.184;2022-09-09T07:02:14;100161.69;;;10.87;39.63
65534;BME280;53640;55.838;37.184;2022-09-09T07:04:41;100160.25;;;10.91;39.82
65534;BME280;53640;55.838;37.184;2022-09-09T07:07:07;100184.38;;;11.14;39.19
65534;BME280;53640;55.838;37.184;2022-09-09T07:09:36;100141.00;;;11.07;38.62
65534;BME280;53640;55.838;37.184;2022-09-09T07:12:03;100170.09;;;11.46;38.01
65534;BME280;53640;55.838;37.184;2022-09-09T07:14:34;100174.31;;;11.69;37.78
65534;BME280;53640;55.838;37.184;2022-09-09T07:17:05;100156.56;;;11.53;37.17
65534;BME280;53640;55.838;37.184;2022-09-09T07:19:37;100171.59;;;11.56;37.54
65534;BME280;53640;55.838;37.184;2022-09-09T07:22:04;100192.22;;;11.50;37.27
65534;BME280;53640;55.838;37.184;2022-09-09T07:24:33;100194.97;;;11.57;37.09
65534;BME280;53640;55.838;37.184;2022-09-09T07:26:59;100179.50;;;11.57;35.42
65534;BME280;53640;55.838;37.184;2022-09-09T07:29:26;100193.72;;;11.66;35.35
65534;BME280;53640;55.838;37.184;2022-09-09T07:31:53;100205.00;;;11.63;35.62
65534;BME280;53640;55.838;37.184;2022-09-09T07:34:25;100167.78;;;11.37;36.03
65534;BME280;53640;55.838;37.184;2022-09-09T07:36:51;100180.72;;;11.41;36.00
65534;BME280;53640;55.838;37.184;2022-09-09T07:39:19;100188.06;;;11.54;36.30
65534;BME280;53640;55.838;37.184;2022-09-09T07:41:49;100207.13;;;11.81;35.94
65534;BME280;53640;55.838;37.184;2022-09-09T07:44:22;100221.19;;;11.97;34.96
65534;BME280;53640;55.838;37.184;2022-09-09T07:46:51;100176.25;;;11.75;35.11
65534;BME280;53640;55.838;37.184;2022-09-09T07:49:22;100200.94;;;12.00;34.60
65534;BME280;53640;55.838;37.184;2022-09-09T07:51:49;100170.44;;;11.91;34.63
65534;BME280;53640;55.838;37.184;2022-09-09T07:54:18;100216.84;;;12.23;34.07
65534;BME280;53640;55.838;37.184;2022-09-09T07:56:51;100226.44;;;12.19;34.65
65534;BME280;53640;55.838;37.184;2022-09-09T07:59:19;100235.19;;;12.21;35.00
65534;BME280;53640;55.838;37.184;2022-09-09T08:01:50;100200.72;;;11.95;34.83
65534;BME280;53640;55.838;37.184;2022-09-09T08:04:22;100192.78;;;11.87;34.78
65534;BME280;53640;55.838;37.184;2022-09-09T08:07:00;100221.81;;;12.06;34.80
65534;BME280;53640;55.838;37.184;2022-09-09T08:09:29;100231.88;;;12.19;34.60
65534;BME280;53640;55.838;37.184;2022-09-09T08:12:10;100198.44;;;12.05;34.62
65534;BME280;53640;55.838;37.184;2022-09-09T08:14:39;100229.75;;;12.41;34.14
65534;BME280;53640;55.838;37.184;2022-09-09T08:17:06;100227.28;;;12.53;33.65
65534;BME280;53640;55.838;37.184;2022-09-09T08:19:33;100235.22;;;12.61;32.91
65534;BME280;53640;55.838;37.184;2022-09-09T08:22:02;100226.63;;;12.64;32.94
65534;BME280;53640;55.838;37.184;2022-09-09T08:24:35;100219.75;;;12.68;33.07
65534;BME280;53640;55.838;37.184;2022-09-09T08:27:02;100226.41;;;12.92;32.11
65534;BME280;53640;55.838;37.184;2022-09-09T08:29:28;100231.81;;;13.05;32.47
65534;BME280;53640;55.838;37.184;2022-09-09T08:31:57;100251.06;;;13.04;32.40
65534;BME280;53640;55.838;37.184;2022-09-09T08:34:25;100208.84;;;12.75;33.25
65534;BME280;53640;55.838;37.184;2022-09-09T08:36:53;100208.88;;;12.61;33.48
65534;BME280;53640;55.838;37.184;2022-09-09T08:39:27;100204.69;;;12.52;33.70
65534;BME280;53640;55.838;37.184;2022-09-09T08:42:36;100240.66;;;12.61;33.81
65534;BME280;53640;55.838;37.184;2022-09-09T08:45:34;100246.91;;;12.55;33.89
65534;BME280;53640;55.838;37.184;2022-09-09T08:50:50;100209.63;;;13.22;32.87
65534;BME280;53640;55.838;37.184;2022-09-09T08:53:24;100223.28;;;13.60;32.28
65534;BME280;53640;55.838;37.184;2022-09-09T08:56:01;100237.88;;;14.10;30.98
65534;BME280;53640;55.838;37.184;2022-09-09T08:58:50;100191.28;;;13.93;30.54
65534;BME280;53640;55.838;37.184;2022-09-09T09:12:49;100247.44;;;13.36;32.52
65534;BME280;53640;55.838;37.184;2022-09-09T09:15:20;100257.06;;;13.32;33.12
65534;BME280;53640;55.838;37.184;2022-09-09T09:17:49;100213.84;;;13.04;32.90
65534;BME280;53640;55.838;37.184;2022-09-09T09:23:05;100243.84;;;13.42;32.18
65534;BME280;53640;55.838;37.184;2022-09-09T09:25:35;100227.09;;;13.45;31.92
65534;BME280;53640;55.838;37.184;2022-09-09T09:28:17;100251.63;;;14.22;31.52
65534;BME280;53640;55.838;37.184;2022-09-09T09:30:59;100212.59;;;14.28;30.86
65534;BME280;53640;55.838;37.184;2022-09-09T09:36:17;100237.41;;;14.20;31.24
65534;BME280;53640;55.838;37.184;2022-09-09T09:39:02;100239.16;;;14.08;31.55
65534;BME280;53640;55.838;37.184;2022-09-09T09:41:41;100204.81;;;13.75;31.78
65534;BME280;53640;55.838;37.184;2022-09-09T09:44:31;100224.50;;;13.64;31.58
65534;BME280;53640;55.838;37.184;2022-09-09T09:47:12;100255.03;;;13.73;31.66
65534;BME280;53640;55.838;37.184;2022-09-09T09:49:53;100229.78;;;13.52;31.64
65534;BME280;53640;55.838;37.184;2022-09-09T09:52:24;100242.16;;;13.48;31.63
65534;BME280;53640;55.838;37.184;2022-09-09T09:54:52;100242.16;;;13.48;32.01
65534;BME280;53640;55.838;37.184;2022-09-09T09:57:25;100200.22;;;13.24;32.12
65534;BME280;53640;55.838;37.184;2022-09-09T10:00:23;100246.06;;;13.65;32.44
65534;BME280;53640;55.838;37.184;2022-09-09T10:03:00;100232.66;;;13.64;31.98
65534;BME280;53640;55.838;37.184;2022-09-09T10:05:30;100199.06;;;13.45;32.54
65534;BME280;53640;55.838;37.184;2022-09-09T10:08:13;100247.75;;;13.60;32.11
65534;BME280;53640;55.838;37.184;2022-09-09T10:24:57;100240.09;;;13.43;32.10
65534;BME280;53640;55.838;37.184;2022-09-09T10:33:09;100228.88;;;13.72;31.81
65534;BME280;53640;55.838;37.184;2022-09-09T10:38:45;100267.44;;;13.62;31.46
65534;BME280;53640;55.838;37.184;2022-09-09T10:41:13;100239.72;;;13.27;32.28
65534;BME280;53640;55.838;37.184;2022-09-09T10:44:02;100262.28;;;13.34;31.85
65534;BME280;53640;55.838;37.184;2022-09-09T10:55:40;100235.63;;;12.91;32.91
65534;BME280;53640;55.838;37.184;2022-09-09T10:58:12;100266.97;;;13.65;32.26
65534;BME280;53640;55.838;37.184;2022-09-09T11:00:44;100238.72;;;13.73;32.01
65534;BME280;53640;55.838;37.184;2022-09-09T11:03:24;100248.09;;;13.77;31.57
65534;BME280;53640;55.838;37.184;2022-09-09T11:05:56;100230.78;;;13.71;31.82
65534;BME280;53640;55.838;37.184;2022-09-09T11:08:27;100257.47;;;13.87;31.88
65534;BME280;53640;55.838;37.184;2022-09-09T11:11:09;100266.53;;;13.81;32.41
65534;BME280;53640;55.838;37.184;2022-09-09T11:13:58;100240.91;;;13.51;32.34
65534;BME280;53640;55.838;37.184;2022-09-09T11:16:45;100244.03;;;13.48;32.53
65534;BME280;53640;55.838;37.184;2022-09-09T11:21:47;100263.91;;;13.55;33.29
65534;BME280;53640;55.838;37.184;2022-09-09T11:27:00;100270.16;;;13.62;32.94
65534;BME280;53640;55.838;37.184;2022-09-09T11:38:16;100257.81;;;14.68;29.16
65534;BME280;53640;55.838;37.184;2022-09-09T11:40:53;100255.13;;;14.86;29.49
65534;BME280;53640;55.838;37.184;2022-09-09T11:43:31;100230.97;;;15.45;28.84
65534;BME280;53640;55.838;37.184;2022-09-09T11:46:01;100254.03;;;16.27;27.67
65534;BME280;53640;55.838;37.184;2022-09-09T11:48:42;100244.19;;;16.26;28.00
65534;BME280;53640;55.838;37.184;2022-09-09T11:51:24;100219.19;;;16.11;28.07
65534;BME280;53640;55.838;37.184;2022-09-09T11:53:54;100244.00;;;16.09;27.70
65534;BME280;53640;55.838;37.184;2022-09-09T11:59:03;100254.34;;;15.59;28.86
65534;BME280;53640;55.838;37.184;2022-09-09T12:06:55;100260.41;;;15.61;28.75
65534;BME280;53640;55.838;37.184;2022-09-09T12:09:29;100221.25;;;16.27;28.43
65534;BME280;53640;55.838;37.184;2022-09-09T12:17:20;100250.88;;;18.62;23.88
65534;BME280;53640;55.838;37.184;2022-09-09T12:19:48;100254.66;;;19.12;23.07
65534;BME280;53640;55.838;37.184;2022-09-09T12:28:04;100241.75;;;18.73;22.96
65534;BME280;53640;55.838;37.184;2022-09-09T12:33:17;100235.78;;;18.31;23.29
65534;BME280;53640;55.838;37.184;2022-09-09T12:35:54;100232.28;;;17.90;23.97
65534;BME280;53640;55.838;37.184;2022-09-09T12:40:58;100220.50;;;16.86;25.46
65534;BME280;53640;55.838;37.184;2022-09-09T12:43:26;100232.13;;;16.69;26.16
65534;BME280;53640;55.838;37.184;2022-09-09T12:46:08;100176.75;;;16.62;25.99
65534;BME280;53640;55.838;37.184;2022-09-09T12:48:39;100238.19;;;17.70;25.37
65534;BME280;53640;55.838;37.184;2022-09-09T12:51:37;100234.41;;;18.62;24.36
65534;BME280;53640;55.838;37.184;2022-09-09T12:54:04;100231.22;;;19.04;23.26
65534;BME280;53640;55.838;37.184;2022-09-09T12:56:31;100218.78;;;18.96;23.33
65534;BME280;53640;55.838;37.184;2022-09-09T12:59:26;100241.38;;;19.26;22.63
65534;BME280;53640;55.838;37.184;2022-09-09T13:02:26;100203.81;;;19.48;22.16
65534;BME280;53640;55.838;37.184;2022-09-09T13:04:54;100196.09;;;19.94;22.08
65534;BME280;53640;55.838;37.184;2022-09-09T13:07:21;100227.22;;;20.59;21.48
65534;BME280;53640;55.838;37.184;2022-09-09T13:09:52;100232.38;;;20.50;21.99
65534;BME280;53640;55.838;37.184;2022-09-09T13:12:21;100237.53;;;20.14;21.94
65534;BME280;53640;55.838;37.184;2022-09-09T13:14:51;100199.41;;;19.47;22.15
65534;BME280;53640;55.838;37.184;2022-09-09T13:17:37;100227.47;;;19.10;22.63
65534;BME280;53640;55.838;37.184;2022-09-09T13:20:05;100192.88;;;18.37;23.18
65534;BME280;53640;55.838;37.184;2022-09-09T13:22:36;100228.53;;;18.08;23.26
65534;BME280;53640;55.838;37.184;2022-09-09T13:27:35;100217.28;;;17.64;24.59
65534;BME280;53640;55.838;37.184;2022-09-09T13:38:16;100213.72;;;19.49;22.30
65534;BME280;53640;55.838;37.184;2022-09-09T13:43:24;100214.16;;;20.12;21.82
65534;BME280;53640;55.838;37.184;2022-09-09T13:46:00;100217.97;;;19.84;22.40
65534;BME280;53640;55.838;37.184;2022-09-09T13:48:28;100206.66;;;19.36;22.61
65534;BME280;53640;55.838;37.184;2022-09-09T13:51:01;100195.34;;;18.89;23.04
65534;BME280;53640;55.838;37.184;2022-09-09T13:53:29;100193.44;;;18.56;23.90
65534;BME280;53640;55.838;37.184;2022-09-09T13:55:58;100198.00;;;18.16;23.96
65534;BME280;53640;55.838;37.184;2022-09-09T13:58:25;100226.34;;;17.93;24.65
65534;BME280;53640;55.838;37.184;2022-09-09T14:00:52;100190.56;;;17.43;24.95
65534;BME280;53640;55.838;37.184;2022-09-09T14:03:21;100200.63;;;17.14;25.01
65534;BME280;53640;55.838;37.184;2022-09-09T14:05:48;100210.50;;;16.91;24.95
65534;BME280;53640;55.838;37.184;2022-09-09T14:08:24;100175.97;;;16.31;25.12
65534;BME280;53640;55.838;37.184;2022-09-09T14:10:51;100186.84;;;15.96;25.13
65534;BME280;53640;55.838;37.184;2022-09-09T14:13:18;100217.91;;;15.83;25.83
65534;BME280;53640;55.838;37.184;2022-09-09T14:15:48;100218.16;;;15.45;26.57
65534;BME280;53640;55.838;37.184;2022-09-09T14:18:15;100181.66;;;14.91;26.80
65534;BME280;53640;55.838;37.184;2022-09-09T14:20:42;100181.13;;;14.64;27.17
65534;BME280;53640;55.838;37.184;2022-09-09T14:23:10;100153.75;;;14.27;27.46
65534;BME280;53640;55.838;37.184;2022-09-09T14:25:39;100108.53;;;13.69;27.81
65534;BME280;53640;55.838;37.184;2022-09-09T14:28:12;100131.16;;;13.63;28.09
65534;BME280;53640;55.838;37.184;2022-09-09T14:30:40;100204.44;;;14.03;28.54
65534;BME280;53640;55.838;37.184;2022-09-09T14:33:09;100183.47;;;13.72;28.49
65534;BME280;53640;55.838;37.184;2022-09-09T14:35:37;100208.75;;;13.79;28.71
65534;BME280;53640;55.838;37.184;2022-09-09T14:38:05;100214.03;;;13.74;29.27
65534;BME280;53640;55.838;37.184;2022-09-09T14:40:31;100203.78;;;13.63;29.83
65534;BME280;53640;55.838;37.184;2022-09-09T14:42:57;100152.28;;;13.30;29.90
65534;BME280;53640;55.838;37.184;2022-09-09T14:45:24;100173.78;;;13.38;29.91
65534;BME280;53640;55.838;37.184;2022-09-09T14:47:52;100134.56;;;13.14;30.32
65534;BME280;53640;55.838;37.184;2022-09-09T14:50:19;100216.16;;;13.59;30.29
65534;BME280;53640;55.838;37.184;2022-09-09T14:52:46;100218.25;;;13.57;29.92
65534;BME280;53640;55.838;37.184;2022-09-09T14:55:13;100224.53;;;13.57;30.13
65534;BME280;53640;55.838;37.184;2022-09-09T14:57:39;100202.44;;;13.40;30.10
65534;BME280;53640;55.838;37.184;2022-09-09T15:00:07;100196.41;;;13.32;30.14
65534;BME280;53640;55.838;37.184;2022-09-09T15:02:34;100198.47;;;13.36;30.40
65534;BME280;53640;55.838;37.184;2022-09-09T15:05:00;100188.69;;;13.22;30.59
65534;BME280;53640;55.838;37.184;2022-09-09T15:07:29;100212.06;;;13.36;30.75
65534;BME280;53640;55.838;37.184;2022-09-09T15:09:58;100207.09;;;13.20;30.81
65534;BME280;53640;55.838;37.184;2022-09-09T15:12:26;100204.19;;;13.15;30.96
65534;BME280;53640;55.838;37.184;2022-09-09T15:14:54;100214.66;;;13.18;30.96
65534;BME280;53640;55.838;37.184;2022-09-09T15:17:21;100207.16;;;13.07;31.06
65534;BME280;53640;55.838;37.184;2022-09-09T15:19:47;100149.31;;;12.60;31.45
65534;BME280;53640;55.838;37.184;2022-09-09T15:22:16;100196.34;;;12.87;32.00
65534;BME280;53640;55.838;37.184;2022-09-09T15:24:43;100175.84;;;12.71;31.46
65534;BME280;53640;55.838;37.184;2022-09-09T15:27:10;100175.47;;;12.61;32.19
65534;BME280;53640;55.838;37.184;2022-09-09T15:29:36;100161.69;;;12.42;32.19
65534;BME280;53640;55.838;37.184;2022-09-09T15:40:43;100203.03;;;12.31;32.69
65534;BME280;53640;55.838;37.184;2022-09-09T15:43:11;100222.91;;;12.38;32.73